sensor_id;sensor_type;location;lat;lon;timestamp;P1;durP1;ratioP1;P2;durP2;ratioP2
39020;SDS011;25188;51.958;5.842;2023-01-30T00:01:23;54.07;;;32.93;;
39020;SDS011;25188;51.958;5.842;2023-01-30T00:03:50;58.33;;;35.33;;
39020;SDS011;25188;51.958;5.842;2023-01-30T00:06:15;57.67;;;34.03;;
39020;SDS011;25188;51.958;5.842;2023-01-30T00:08:41;57.33;;;32.40;;
39020;SDS011;25188;51.958;5.842;2023-01-30T00:11:08;54.27;;;32.40;;
39020;SDS011;25188;51.958;5.842;2023-01-30T00:13:35;58.47;;;33.63;;
39020;SDS011;25188;51.958;5.842;2023-01-30T00:16:01;67.80;;;34.80;;
39020;SDS011;25188;51.958;5.842;2023-01-30T00:18:27;66.47;;;35.83;;
39020;SDS011;25188;51.958;5.842;2023-01-30T00:20:56;61.00;;;35.97;;
39020;SDS011;25188;51.958;5.842;2023-01-30T00:23:26;58.73;;;35.27;;
39020;SDS011;25188;51.958;5.842;2023-01-30T00:25:52;63.53;;;35.70;;
39020;SDS011;25188;51.958;5.842;2023-01-30T00:28:18;60.03;;;35.43;;
39020;SDS011;25188;51.958;5.842;2023-01-30T00:30:44;66.33;;;37.00;;
39020;SDS011;25188;51.958;5.842;2023-01-30T00:33:13;57.80;;;35.73;;
39020;SDS011;25188;51.958;5.842;2023-01-30T00:35:42;55.63;;;33.10;;
39020;SDS011;25188;51.958;5.842;2023-01-30T00:38:11;61.27;;;36.30;;
39020;SDS011;25188;51.958;5.842;2023-01-30T00:40:38;64.37;;;37.70;;
39020;SDS011;25188;51.958;5.842;2023-01-30T00:43:04;57.10;;;34.73;;
39020;SDS011;25188;51.958;5.842;2023-01-30T00:45:48;65.10;;;37.13;;
39020;SDS011;25188;51.958;5.842;2023-01-30T00:48:34;62.60;;;36.77;;
39020;SDS011;25188;51.958;5.842;2023-01-30T00:51:00;59.07;;;35.37;;
39020;SDS011;25188;51.958;5.842;2023-01-30T00:53:26;67.63;;;37.33;;
39020;SDS011;25188;51.958;5.842;2023-01-30T00:55:52;61.67;;;35.60;;
39020;SDS011;25188;51.958;5.842;2023-01-30T00:58:18;64.87;;;37.93;;
39020;SDS011;25188;51.958;5.842;2023-01-30T01:00:45;58.70;;;35.07;;
39020;SDS011;25188;51.958;5.842;2023-01-30T01:03:11;65.20;;;35.43;;
39020;SDS011;25188;51.958;5.842;2023-01-30T01:05:37;59.70;;;34.27;;
39020;SDS011;25188;51.958;5.842;2023-01-30T01:08:03;66.57;;;34.27;;
39020;SDS011;25188;51.958;5.842;2023-01-30T01:10:29;56.57;;;35.20;;
39020;SDS011;25188;51.958;5.842;2023-01-30T01:12:55;60.93;;;36.60;;
39020;SDS011;25188;51.958;5.842;2023-01-30T01:15:21;63.87;;;36.47;;
39020;SDS011;25188;51.958;5.842;2023-01-30T01:17:48;66.60;;;38.10;;
39020;SDS011;25188;51.958;5.842;2023-01-30T01:20:14;60.63;;;37.27;;
39020;SDS011;25188;51.958;5.842;2023-01-30T01:22:41;59.10;;;36.00;;
39020;SDS011;25188;51.958;5.842;2023-01-30T01:25:07;57.03;;;35.23;;
39020;SDS011;25188;51.958;5.842;2023-01-30T01:27:34;61.73;;;36.57;;
39020;SDS011;25188;51.958;5.842;2023-01-30T01:30:00;62.93;;;36.47;;
39020;SDS011;25188;51.958;5.842;2023-01-30T01:32:25;61.30;;;35.20;;
39020;SDS011;25188;51.958;5.842;2023-01-30T01:34:51;62.97;;;36.23;;
39020;SDS011;25188;51.958;5.842;2023-01-30T01:37:16;63.27;;;36.43;;
39020;SDS011;25188;51.958;5.842;2023-01-30T01:39:42;60.60;;;35.77;;
39020;SDS011;25188;51.958;5.842;2023-01-30T01:42:28;55.97;;;36.47;;
39020;SDS011;25188;51.958;5.842;2023-01-30T01:47:35;62.70;;;35.87;;
39020;SDS011;25188;51.958;5.842;2023-01-30T01:50:04;61.07;;;34.73;;
39020;SDS011;25188;51.958;5.842;2023-01-30T01:52:31;63.00;;;37.23;;
39020;SDS011;25188;51.958;5.842;2023-01-30T01:54:58;55.83;;;35.10;;
39020;SDS011;25188;51.958;5.842;2023-01-30T01:57:31;55.50;;;33.60;;
39020;SDS011;25188;51.958;5.842;2023-01-30T02:02:46;56.90;;;33.00;;
39020;SDS011;25188;51.958;5.842;2023-01-30T02:05:20;53.20;;;32.37;;
39020;SDS011;25188;51.958;5.842;2023-01-30T02:07:50;52.07;;;33.87;;
39020;SDS011;25188;51.958;5.842;2023-01-30T02:10:32;59.27;;;35.20;;
39020;SDS011;25188;51.958;5.842;2023-01-30T02:13:14;53.80;;;33.43;;
39020;SDS011;25188;51.958;5.842;2023-01-30T02:15:41;51.27;;;31.57;;
39020;SDS011;25188;51.958;5.842;2023-01-30T02:18:07;53.90;;;30.50;;
39020;SDS011;25188;51.958;5.842;2023-01-30T02:34:41;42.33;;;24.00;;
39020;SDS011;25188;51.958;5.842;2023-01-30T02:45:21;36.85;;;19.95;;
39020;SDS011;25188;51.958;5.842;2023-01-30T02:48:08;30.73;;;18.40;;
39020;SDS011;25188;51.958;5.842;2023-01-30T02:50:49;32.40;;;17.83;;
39020;SDS011;25188;51.958;5.842;2023-01-30T02:53:21;26.77;;;15.87;;
39020;SDS011;25188;51.958;5.842;2023-01-30T02:55:47;28.33;;;16.70;;
39020;SDS011;25188;51.958;5.842;2023-01-30T02:58:13;28.73;;;16.67;;
39020;SDS011;25188;51.958;5.842;2023-01-30T03:12:00;36.27;;;20.20;;
39020;SDS011;25188;51.958;5.842;2023-01-30T03:14:34;32.33;;;17.03;;
39020;SDS011;25188;51.958;5.842;2023-01-30T03:17:24;35.37;;;19.53;;
39020;SDS011;25188;51.958;5.842;2023-01-30T03:19:52;33.90;;;18.57;;
39020;SDS011;25188;51.958;5.842;2023-01-30T03:22:19;34.73;;;17.70;;
39020;SDS011;25188;51.958;5.842;2023-01-30T03:24:46;35.50;;;19.50;;
39020;SDS011;25188;51.958;5.842;2023-01-30T03:27:13;31.57;;;18.17;;
39020;SDS011;25188;51.958;5.842;2023-01-30T03:29:39;34.67;;;17.87;;
39020;SDS011;25188;51.958;5.842;2023-01-30T03:32:05;33.67;;;17.77;;
39020;SDS011;25188;51.958;5.842;2023-01-30T03:34:31;33.50;;;17.23;;
39020;SDS011;25188;51.958;5.842;2023-01-30T03:36:56;30.63;;;16.40;;
39020;SDS011;25188;51.958;5.842;2023-01-30T03:39:23;28.10;;;16.10;;
39020;SDS011;25188;51.958;5.842;2023-01-30T03:41:49;31.10;;;16.03;;
39020;SDS011;25188;51.958;5.842;2023-01-30T03:44:16;35.00;;;15.30;;
39020;SDS011;25188;51.958;5.842;2023-01-30T03:46:42;28.10;;;14.23;;
39020;SDS011;25188;51.958;5.842;2023-01-30T03:49:07;29.27;;;15.13;;
39020;SDS011;25188;51.958;5.842;2023-01-30T03:51:33;31.63;;;14.90;;
39020;SDS011;25188;51.958;5.842;2023-01-30T03:53:59;26.33;;;14.93;;
39020;SDS011;25188;51.958;5.842;2023-01-30T03:56:24;25.70;;;14.43;;
39020;SDS011;25188;51.958;5.842;2023-01-30T03:58:50;28.03;;;14.87;;
39020;SDS011;25188;51.958;5.842;2023-01-30T04:01:15;29.73;;;15.10;;
39020;SDS011;25188;51.958;5.842;2023-01-30T04:03:41;28.27;;;14.13;;
39020;SDS011;25188;51.958;5.842;2023-01-30T04:06:07;24.60;;;14.10;;
39020;SDS011;25188;51.958;5.842;2023-01-30T04:08:32;31.00;;;14.00;;
39020;SDS011;25188;51.958;5.842;2023-01-30T04:10:58;29.13;;;16.00;;
39020;SDS011;25188;51.958;5.842;2023-01-30T04:13:24;34.63;;;14.83;;
39020;SDS011;25188;51.958;5.842;2023-01-30T04:15:49;32.53;;;14.30;;
39020;SDS011;25188;51.958;5.842;2023-01-30T04:18:15;28.80;;;13.63;;
39020;SDS011;25188;51.958;5.842;2023-01-30T04:20:41;29.43;;;13.27;;
39020;SDS011;25188;51.958;5.842;2023-01-30T04:23:06;28.73;;;13.50;;
39020;SDS011;25188;51.958;5.842;2023-01-30T04:25:32;25.87;;;14.40;;
39020;SDS011;25188;51.958;5.842;2023-01-30T04:27:58;27.77;;;14.00;;
39020;SDS011;25188;51.958;5.842;2023-01-30T04:30:23;31.63;;;15.07;;
39020;SDS011;25188;51.958;5.842;2023-01-30T04:32:49;24.93;;;13.57;;
39020;SDS011;25188;51.958;5.842;2023-01-30T04:35:14;29.20;;;13.43;;
39020;SDS011;25188;51.958;5.842;2023-01-30T04:37:40;26.13;;;12.40;;
39020;SDS011;25188;51.958;5.842;2023-01-30T04:40:06;27.43;;;13.70;;
39020;SDS011;25188;51.958;5.842;2023-01-30T04:42:32;23.07;;;11.80;;
39020;SDS011;25188;51.958;5.842;2023-01-30T04:44:58;28.83;;;13.43;;
39020;SDS011;25188;51.958;5.842;2023-01-30T04:47:23;31.17;;;12.93;;
39020;SDS011;25188;51.958;5.842;2023-01-30T04:49:49;28.67;;;12.03;;
39020;SDS011;25188;51.958;5.842;2023-01-30T04:52:15;30.80;;;11.93;;
39020;SDS011;25188;51.958;5.842;2023-01-30T04:54:40;29.00;;;11.90;;
39020;SDS011;25188;51.958;5.842;2023-01-30T04:57:06;29.07;;;12.80;;
39020;SDS011;25188;51.958;5.842;2023-01-30T04:59:31;28.37;;;12.23;;
39020;SDS011;25188;51.958;5.842;2023-01-30T05:01:57;22.10;;;11.40;;
39020;SDS011;25188;51.958;5.842;2023-01-30T05:04:23;28.43;;;10.93;;
39020;SDS011;25188;51.958;5.842;2023-01-30T05:06:48;23.47;;;10.83;;
39020;SDS011;25188;51.958;5.842;2023-01-30T05:09:14;26.67;;;10.00;;
39020;SDS011;25188;51.958;5.842;2023-01-30T05:11:40;25.97;;;9.97;;
39020;SDS011;25188;51.958;5.842;2023-01-30T05:14:05;26.87;;;9.77;;
39020;SDS011;25188;51.958;5.842;2023-01-30T05:16:31;25.27;;;8.97;;
39020;SDS011;25188;51.958;5.842;2023-01-30T05:18:57;23.93;;;9.27;;
39020;SDS011;25188;51.958;5.842;2023-01-30T05:21:23;27.70;;;9.30;;
39020;SDS011;25188;51.958;5.842;2023-01-30T05:23:51;24.83;;;9.30;;
39020;SDS011;25188;51.958;5.842;2023-01-30T05:26:18;28.03;;;8.57;;
39020;SDS011;25188;51.958;5.842;2023-01-30T05:28:43;27.57;;;8.63;;
39020;SDS011;25188;51.958;5.842;2023-01-30T05:31:14;18.97;;;8.13;;
39020;SDS011;25188;51.958;5.842;2023-01-30T05:33:40;20.73;;;8.10;;
39020;SDS011;25188;51.958;5.842;2023-01-30T05:36:06;21.23;;;7.83;;
39020;SDS011;25188;51.958;5.842;2023-01-30T05:38:32;19.27;;;6.33;;
39020;SDS011;25188;51.958;5.842;2023-01-30T05:40:58;13.57;;;6.27;;
39020;SDS011;25188;51.958;5.842;2023-01-30T05:43:28;16.70;;;5.60;;
39020;SDS011;25188;51.958;5.842;2023-01-30T05:45:55;13.43;;;5.37;;
39020;SDS011;25188;51.958;5.842;2023-01-30T05:48:22;18.30;;;4.60;;
39020;SDS011;25188;51.958;5.842;2023-01-30T05:50:52;18.97;;;3.73;;
39020;SDS011;25188;51.958;5.842;2023-01-30T05:53:20;10.17;;;2.97;;
39020;SDS011;25188;51.958;5.842;2023-01-30T05:55:53;13.20;;;2.77;;
39020;SDS011;25188;51.958;5.842;2023-01-30T05:58:19;12.53;;;2.73;;
39020;SDS011;25188;51.958;5.842;2023-01-30T06:00:45;16.93;;;2.73;;
39020;SDS011;25188;51.958;5.842;2023-01-30T06:03:11;21.30;;;2.83;;
39020;SDS011;25188;51.958;5.842;2023-01-30T06:05:37;23.73;;;3.57;;
39020;SDS011;25188;51.958;5.842;2023-01-30T06:08:02;19.70;;;3.63;;
39020;SDS011;25188;51.958;5.842;2023-01-30T06:10:28;15.93;;;3.03;;
39020;SDS011;25188;51.958;5.842;2023-01-30T06:12:54;14.53;;;2.57;;
39020;SDS011;25188;51.958;5.842;2023-01-30T06:15:19;12.17;;;2.30;;
39020;SDS011;25188;51.958;5.842;2023-01-30T06:17:45;13.10;;;2.30;;
39020;SDS011;25188;51.958;5.842;2023-01-30T06:20:11;17.03;;;2.60;;
39020;SDS011;25188;51.958;5.842;2023-01-30T06:22:36;14.37;;;2.23;;
39020;SDS011;25188;51.958;5.842;2023-01-30T06:25:03;22.10;;;2.47;;
39020;SDS011;25188;51.958;5.842;2023-01-30T06:27:29;16.57;;;2.33;;
39020;SDS011;25188;51.958;5.842;2023-01-30T06:29:55;13.30;;;2.70;;
39020;SDS011;25188;51.958;5.842;2023-01-30T06:32:20;13.43;;;2.87;;
39020;SDS011;25188;51.958;5.842;2023-01-30T06:34:46;18.53;;;2.40;;
39020;SDS011;25188;51.958;5.842;2023-01-30T06:37:11;14.67;;;2.60;;
39020;SDS011;25188;51.958;5.842;2023-01-30T06:39:37;14.37;;;2.03;;
39020;SDS011;25188;51.958;5.842;2023-01-30T06:42:03;18.07;;;2.90;;
39020;SDS011;25188;51.958;5.842;2023-01-30T06:44:28;13.40;;;2.37;;
39020;SDS011;25188;51.958;5.842;2023-01-30T06:46:54;15.20;;;2.60;;
39020;SDS011;25188;51.958;5.842;2023-01-30T06:49:20;18.40;;;2.30;;
39020;SDS011;25188;51.958;5.842;2023-01-30T06:51:45;21.77;;;3.20;;
39020;SDS011;25188;51.958;5.842;2023-01-30T06:54:11;15.70;;;2.93;;
39020;SDS011;25188;51.958;5.842;2023-01-30T06:56:37;15.97;;;2.70;;
39020;SDS011;25188;51.958;5.842;2023-01-30T06:59:02;19.07;;;2.77;;
39020;SDS011;25188;51.958;5.842;2023-01-30T07:01:28;24.83;;;3.77;;
39020;SDS011;25188;51.958;5.842;2023-01-30T07:03:53;19.07;;;2.60;;
39020;SDS011;25188;51.958;5.842;2023-01-30T07:06:19;14.47;;;2.90;;
39020;SDS011;25188;51.958;5.842;2023-01-30T07:08:45;15.90;;;3.47;;
39020;SDS011;25188;51.958;5.842;2023-01-30T07:11:10;21.43;;;2.77;;
39020;SDS011;25188;51.958;5.842;2023-01-30T07:13:36;19.93;;;3.33;;
39020;SDS011;25188;51.958;5.842;2023-01-30T07:16:01;21.73;;;2.70;;
39020;SDS011;25188;51.958;5.842;2023-01-30T07:18:27;24.83;;;3.03;;
39020;SDS011;25188;51.958;5.842;2023-01-30T07:20:53;15.47;;;2.50;;
39020;SDS011;25188;51.958;5.842;2023-01-30T07:23:18;22.70;;;3.87;;
39020;SDS011;25188;51.958;5.842;2023-01-30T07:25:44;18.73;;;3.43;;
39020;SDS011;25188;51.958;5.842;2023-01-30T07:28:10;25.03;;;3.47;;
39020;SDS011;25188;51.958;5.842;2023-01-30T07:30:35;22.70;;;3.83;;
39020;SDS011;25188;51.958;5.842;2023-01-30T07:33:02;21.47;;;3.50;;
39020;SDS011;25188;51.958;5.842;2023-01-30T07:35:32;25.37;;;4.70;;
39020;SDS011;25188;51.958;5.842;2023-01-30T07:37:59;24.27;;;3.37;;
39020;SDS011;25188;51.958;5.842;2023-01-30T07:40:25;23.60;;;3.23;;
39020;SDS011;25188;51.958;5.842;2023-01-30T07:42:57;23.87;;;3.17;;
39020;SDS011;25188;51.958;5.842;2023-01-30T07:45:26;19.90;;;3.35;;
39020;SDS011;25188;51.958;5.842;2023-01-30T07:47:55;21.83;;;2.67;;
39020;SDS011;25188;51.958;5.842;2023-01-30T07:50:20;29.87;;;4.13;;
39020;SDS011;25188;51.958;5.842;2023-01-30T07:52:46;23.17;;;3.50;;
39020;SDS011;25188;51.958;5.842;2023-01-30T07:55:12;25.10;;;4.37;;
39020;SDS011;25188;51.958;5.842;2023-01-30T07:57:37;22.60;;;4.40;;
39020;SDS011;25188;51.958;5.842;2023-01-30T08:00:03;22.23;;;2.97;;
39020;SDS011;25188;51.958;5.842;2023-01-30T08:02:29;23.57;;;3.17;;
39020;SDS011;25188;51.958;5.842;2023-01-30T08:04:55;20.40;;;3.83;;
39020;SDS011;25188;51.958;5.842;2023-01-30T08:07:20;18.57;;;2.93;;
39020;SDS011;25188;51.958;5.842;2023-01-30T08:09:46;23.10;;;3.33;;
39020;SDS011;25188;51.958;5.842;2023-01-30T08:12:12;23.13;;;4.20;;
39020;SDS011;25188;51.958;5.842;2023-01-30T08:14:37;22.73;;;3.33;;
39020;SDS011;25188;51.958;5.842;2023-01-30T08:17:03;24.23;;;3.63;;
39020;SDS011;25188;51.958;5.842;2023-01-30T08:19:29;21.53;;;2.97;;
39020;SDS011;25188;51.958;5.842;2023-01-30T08:21:54;24.20;;;3.13;;
39020;SDS011;25188;51.958;5.842;2023-01-30T08:24:20;23.87;;;4.20;;
39020;SDS011;25188;51.958;5.842;2023-01-30T08:26:49;21.50;;;2.73;;
39020;SDS011;25188;51.958;5.842;2023-01-30T08:29:14;14.90;;;2.43;;
39020;SDS011;25188;51.958;5.842;2023-01-30T08:31:40;23.87;;;4.37;;
39020;SDS011;25188;51.958;5.842;2023-01-30T08:34:06;27.93;;;4.63;;
39020;SDS011;25188;51.958;5.842;2023-01-30T08:36:31;22.87;;;4.10;;
39020;SDS011;25188;51.958;5.842;2023-01-30T08:38:57;22.00;;;3.17;;
39020;SDS011;25188;51.958;5.842;2023-01-30T08:41:23;24.30;;;2.73;;
39020;SDS011;25188;51.958;5.842;2023-01-30T08:43:51;19.13;;;2.97;;
39020;SDS011;25188;51.958;5.842;2023-01-30T08:46:16;20.27;;;2.67;;
39020;SDS011;25188;51.958;5.842;2023-01-30T08:48:43;23.53;;;3.27;;
39020;SDS011;25188;51.958;5.842;2023-01-30T08:51:10;19.93;;;3.43;;
39020;SDS011;25188;51.958;5.842;2023-01-30T08:53:36;14.53;;;2.10;;
39020;SDS011;25188;51.958;5.842;2023-01-30T08:56:01;19.60;;;3.07;;
39020;SDS011;25188;51.958;5.842;2023-01-30T08:58:27;18.87;;;2.87;;
39020;SDS011;25188;51.958;5.842;2023-01-30T09:00:53;21.37;;;2.60;;
39020;SDS011;25188;51.958;5.842;2023-01-30T09:03:18;22.93;;;3.43;;
39020;SDS011;25188;51.958;5.842;2023-01-30T09:05:44;21.57;;;2.77;;
39020;SDS011;25188;51.958;5.842;2023-01-30T09:08:10;20.33;;;2.83;;
39020;SDS011;25188;51.958;5.842;2023-01-30T09:10:36;20.30;;;2.70;;
39020;SDS011;25188;51.958;5.842;2023-01-30T09:13:02;15.97;;;2.93;;
39020;SDS011;25188;51.958;5.842;2023-01-30T09:15:29;15.30;;;2.30;;
39020;SDS011;25188;51.958;5.842;2023-01-30T09:17:55;15.67;;;2.83;;
39020;SDS011;25188;51.958;5.842;2023-01-30T09:20:21;17.30;;;3.20;;
39020;SDS011;25188;51.958;5.842;2023-01-30T09:22:46;21.43;;;2.97;;
39020;SDS011;25188;51.958;5.842;2023-01-30T09:25:13;20.23;;;2.77;;
39020;SDS011;25188;51.958;5.842;2023-01-30T09:27:39;12.73;;;1.90;;
39020;SDS011;25188;51.958;5.842;2023-01-30T09:30:08;15.37;;;2.73;;
39020;SDS011;25188;51.958;5.842;2023-01-30T09:32:34;15.30;;;2.50;;
39020;SDS011;25188;51.958;5.842;2023-01-30T09:35:01;16.80;;;2.30;;
39020;SDS011;25188;51.958;5.842;2023-01-30T09:37:27;14.23;;;2.10;;
39020;SDS011;25188;51.958;5.842;2023-01-30T09:39:53;21.20;;;2.40;;
39020;SDS011;25188;51.958;5.842;2023-01-30T09:50:59;15.50;;;2.43;;
39020;SDS011;25188;51.958;5.842;2023-01-30T09:53:58;19.23;;;2.63;;
39020;SDS011;25188;51.958;5.842;2023-01-30T09:56:28;18.93;;;2.83;;
39020;SDS011;25188;51.958;5.842;2023-01-30T09:58:58;13.53;;;2.87;;
39020;SDS011;25188;51.958;5.842;2023-01-30T10:01:29;24.60;;;3.10;;
39020;SDS011;25188;51.958;5.842;2023-01-30T10:04:23;14.93;;;3.00;;
39020;SDS011;25188;51.958;5.842;2023-01-30T10:09:46;18.27;;;2.07;;
39020;SDS011;25188;51.958;5.842;2023-01-30T10:18:52;19.20;;;3.10;;
39020;SDS011;25188;51.958;5.842;2023-01-30T10:26:32;17.33;;;2.13;;
39020;SDS011;25188;51.958;5.842;2023-01-30T10:28:59;22.37;;;2.80;;
39020;SDS011;25188;51.958;5.842;2023-01-30T10:31:41;20.47;;;4.17;;
39020;SDS011;25188;51.958;5.842;2023-01-30T10:34:19;21.03;;;2.43;;
39020;SDS011;25188;51.958;5.842;2023-01-30T10:37:08;21.77;;;2.87;;
39020;SDS011;25188;51.958;5.842;2023-01-30T10:42:38;21.52;;;3.05;;
39020;SDS011;25188;51.958;5.842;2023-01-30T10:45:21;16.90;;;2.63;;
39020;SDS011;25188;51.958;5.842;2023-01-30T10:55:56;18.17;;;3.23;;
39020;SDS011;25188;51.958;5.842;2023-01-30T10:58:39;18.97;;;2.60;;
39020;SDS011;25188;51.958;5.842;2023-01-30T11:03:40;23.40;;;3.80;;
39020;SDS011;25188;51.958;5.842;2023-01-30T11:06:07;19.80;;;3.70;;
39020;SDS011;25188;51.958;5.842;2023-01-30T11:08:37;23.57;;;2.90;;
39020;SDS011;25188;51.958;5.842;2023-01-30T11:11:19;17.37;;;2.43;;
39020;SDS011;25188;51.958;5.842;2023-01-30T11:14:08;21.27;;;3.80;;
39020;SDS011;25188;51.958;5.842;2023-01-30T11:16:49;22.00;;;2.17;;
39020;SDS011;25188;51.958;5.842;2023-01-30T11:19:18;19.00;;;2.50;;
39020;SDS011;25188;51.958;5.842;2023-01-30T11:21:49;18.73;;;2.57;;
39020;SDS011;25188;51.958;5.842;2023-01-30T11:24:18;22.37;;;2.70;;
39020;SDS011;25188;51.958;5.842;2023-01-30T11:26:52;19.90;;;2.70;;
39020;SDS011;25188;51.958;5.842;2023-01-30T11:31:50;17.92;;;2.80;;
39020;SDS011;25188;51.958;5.842;2023-01-30T11:34:18;15.02;;;2.85;;
39020;SDS011;25188;51.958;5.842;2023-01-30T11:36:46;22.20;;;3.10;;
39020;SDS011;25188;51.958;5.842;2023-01-30T11:41:41;16.33;;;3.40;;
39020;SDS011;25188;51.958;5.842;2023-01-30T11:44:08;17.63;;;2.25;;
39020;SDS011;25188;51.958;5.842;2023-01-30T11:46:35;17.60;;;2.35;;
39020;SDS011;25188;51.958;5.842;2023-01-30T11:49:14;14.15;;;3.20;;
39020;SDS011;25188;51.958;5.842;2023-01-30T11:51:44;16.60;;;2.97;;
39020;SDS011;25188;51.958;5.842;2023-01-30T11:54:25;15.90;;;2.50;;
39020;SDS011;25188;51.958;5.842;2023-01-30T11:56:59;13.40;;;2.83;;
39020;SDS011;25188;51.958;5.842;2023-01-30T12:02:02;16.08;;;2.58;;
39020;SDS011;25188;51.958;5.842;2023-01-30T12:04:48;19.30;;;2.63;;
39020;SDS011;25188;51.958;5.842;2023-01-30T12:07:29;16.70;;;2.70;;
39020;SDS011;25188;51.958;5.842;2023-01-30T12:09:56;16.80;;;2.60;;
39020;SDS011;25188;51.958;5.842;2023-01-30T12:26:01;15.70;;;3.58;;
39020;SDS011;25188;51.958;5.842;2023-01-30T12:31:10;21.02;;;3.13;;
39020;SDS011;25188;51.958;5.842;2023-01-30T12:33:48;14.30;;;2.13;;
39020;SDS011;25188;51.958;5.842;2023-01-30T12:50:41;21.40;;;2.77;;
39020;SDS011;25188;51.958;5.842;2023-01-30T12:53:23;17.52;;;3.20;;
39020;SDS011;25188;51.958;5.842;2023-01-30T12:58:36;22.87;;;3.23;;
39020;SDS011;25188;51.958;5.842;2023-01-30T13:09:36;19.33;;;3.07;;
39020;SDS011;25188;51.958;5.842;2023-01-30T13:12:26;21.40;;;3.00;;
39020;SDS011;25188;51.958;5.842;2023-01-30T13:17:33;25.90;;;3.30;;
39020;SDS011;25188;51.958;5.842;2023-01-30T13:22:40;18.97;;;3.10;;
39020;SDS011;25188;51.958;5.842;2023-01-30T13:28:37;17.23;;;2.77;;
39020;SDS011;25188;51.958;5.842;2023-01-30T13:31:08;20.10;;;2.93;;
39020;SDS011;25188;51.958;5.842;2023-01-30T13:33:39;19.60;;;2.90;;
39020;SDS011;25188;51.958;5.842;2023-01-30T13:36:10;18.77;;;3.10;;
39020;SDS011;25188;51.958;5.842;2023-01-30T13:38:51;17.73;;;2.23;;
39020;SDS011;25188;51.958;5.842;2023-01-30T13:41:23;15.93;;;3.00;;
39020;SDS011;25188;51.958;5.842;2023-01-30T13:43:52;16.67;;;2.77;;
39020;SDS011;25188;51.958;5.842;2023-01-30T13:46:21;15.47;;;2.40;;
39020;SDS011;25188;51.958;5.842;2023-01-30T13:49:00;16.67;;;2.57;;
39020;SDS011;25188;51.958;5.842;2023-01-30T13:56:53;19.63;;;3.30;;
39020;SDS011;25188;51.958;5.842;2023-01-30T14:04:41;21.08;;;2.60;;
39020;SDS011;25188;51.958;5.842;2023-01-30T14:12:36;15.33;;;2.40;;
39020;SDS011;25188;51.958;5.842;2023-01-30T14:20:32;24.27;;;3.80;;
39020;SDS011;25188;51.958;5.842;2023-01-30T14:23:40;14.80;;;1.97;;
39020;SDS011;25188;51.958;5.842;2023-01-30T14:26:00;20.27;;;4.13;;
39020;SDS011;25188;51.958;5.842;2023-01-30T14:30:59;17.60;;;3.07;;
39020;SDS011;25188;51.958;5.842;2023-01-30T14:38:24;23.77;;;3.50;;
39020;SDS011;25188;51.958;5.842;2023-01-30T14:43:32;27.40;;;2.70;;
39020;SDS011;25188;51.958;5.842;2023-01-30T14:46:03;21.10;;;2.70;;
39020;SDS011;25188;51.958;5.842;2023-01-30T14:51:16;17.35;;;3.13;;
39020;SDS011;25188;51.958;5.842;2023-01-30T14:54:02;16.60;;;3.10;;
39020;SDS011;25188;51.958;5.842;2023-01-30T15:04:45;13.53;;;2.10;;
39020;SDS011;25188;51.958;5.842;2023-01-30T15:07:26;20.73;;;3.30;;
39020;SDS011;25188;51.958;5.842;2023-01-30T15:09:59;20.13;;;2.77;;
39020;SDS011;25188;51.958;5.842;2023-01-30T15:15:23;22.33;;;2.90;;
39020;SDS011;25188;51.958;5.842;2023-01-30T15:31:52;30.10;;;3.63;;
39020;SDS011;25188;51.958;5.842;2023-01-30T15:34:29;19.23;;;2.50;;
39020;SDS011;25188;51.958;5.842;2023-01-30T15:36:55;19.67;;;3.97;;
39020;SDS011;25188;51.958;5.842;2023-01-30T15:39:22;17.67;;;2.53;;
39020;SDS011;25188;51.958;5.842;2023-01-30T15:41:50;23.10;;;2.90;;
39020;SDS011;25188;51.958;5.842;2023-01-30T15:52:40;23.40;;;3.77;;
39020;SDS011;25188;51.958;5.842;2023-01-30T15:55:22;21.23;;;2.47;;
39020;SDS011;25188;51.958;5.842;2023-01-30T15:57:51;15.23;;;2.90;;
39020;SDS011;25188;51.958;5.842;2023-01-30T16:00:30;20.23;;;2.80;;
39020;SDS011;25188;51.958;5.842;2023-01-30T16:03:01;12.27;;;3.03;;
39020;SDS011;25188;51.958;5.842;2023-01-30T16:05:28;18.47;;;2.60;;
39020;SDS011;25188;51.958;5.842;2023-01-30T16:07:55;17.43;;;2.77;;
39020;SDS011;25188;51.958;5.842;2023-01-30T16:10:22;15.93;;;2.50;;
39020;SDS011;25188;51.958;5.842;2023-01-30T16:12:48;16.07;;;3.03;;
39020;SDS011;25188;51.958;5.842;2023-01-30T16:15:39;20.87;;;3.67;;
39020;SDS011;25188;51.958;5.842;2023-01-30T16:18:30;14.97;;;2.73;;
39020;SDS011;25188;51.958;5.842;2023-01-30T16:21:04;21.00;;;2.80;;
39020;SDS011;25188;51.958;5.842;2023-01-30T16:26:08;19.97;;;3.03;;
39020;SDS011;25188;51.958;5.842;2023-01-30T16:28:41;23.63;;;3.17;;
39020;SDS011;25188;51.958;5.842;2023-01-30T16:31:08;20.47;;;3.17;;
39020;SDS011;25188;51.958;5.842;2023-01-30T16:33:35;25.13;;;2.70;;
39020;SDS011;25188;51.958;5.842;2023-01-30T16:36:05;18.80;;;3.13;;
39020;SDS011;25188;51.958;5.842;2023-01-30T16:38:42;25.40;;;3.00;;
39020;SDS011;25188;51.958;5.842;2023-01-30T16:46:57;19.50;;;2.80;;
39020;SDS011;25188;51.958;5.842;2023-01-30T16:49:43;13.57;;;1.80;;
39020;SDS011;25188;51.958;5.842;2023-01-30T16:54:51;12.77;;;2.23;;
39020;SDS011;25188;51.958;5.842;2023-01-30T16:59:55;16.73;;;2.58;;
39020;SDS011;25188;51.958;5.842;2023-01-30T17:02:40;20.13;;;3.30;;
39020;SDS011;25188;51.958;5.842;2023-01-30T17:07:48;18.13;;;2.53;;
39020;SDS011;25188;51.958;5.842;2023-01-30T17:10:46;18.53;;;3.07;;
39020;SDS011;25188;51.958;5.842;2023-01-30T17:18:48;17.67;;;2.73;;
39020;SDS011;25188;51.958;5.842;2023-01-30T17:21:17;23.77;;;2.67;;
39020;SDS011;25188;51.958;5.842;2023-01-30T17:23:45;15.73;;;2.50;;
39020;SDS011;25188;51.958;5.842;2023-01-30T17:26:22;17.13;;;2.60;;
39020;SDS011;25188;51.958;5.842;2023-01-30T17:28:47;18.20;;;1.93;;
39020;SDS011;25188;51.958;5.842;2023-01-30T17:31:14;17.43;;;2.33;;
39020;SDS011;25188;51.958;5.842;2023-01-30T17:33:41;23.60;;;3.37;;
39020;SDS011;25188;51.958;5.842;2023-01-30T17:36:16;21.47;;;2.37;;
39020;SDS011;25188;51.958;5.842;2023-01-30T17:38:43;22.90;;;3.23;;
39020;SDS011;25188;51.958;5.842;2023-01-30T17:41:15;26.57;;;3.23;;
39020;SDS011;25188;51.958;5.842;2023-01-30T17:43:44;28.07;;;3.17;;
39020;SDS011;25188;51.958;5.842;2023-01-30T17:46:10;18.80;;;2.60;;
39020;SDS011;25188;51.958;5.842;2023-01-30T17:48:37;23.77;;;4.20;;
39020;SDS011;25188;51.958;5.842;2023-01-30T17:51:03;15.63;;;2.77;;
39020;SDS011;25188;51.958;5.842;2023-01-30T17:53:29;26.60;;;3.30;;
39020;SDS011;25188;51.958;5.842;2023-01-30T17:55:54;25.73;;;3.67;;
39020;SDS011;25188;51.958;5.842;2023-01-30T17:58:20;32.47;;;4.03;;
39020;SDS011;25188;51.958;5.842;2023-01-30T18:00:46;31.80;;;4.00;;
39020;SDS011;25188;51.958;5.842;2023-01-30T18:03:12;20.43;;;3.87;;
39020;SDS011;25188;51.958;5.842;2023-01-30T18:05:38;21.30;;;3.43;;
39020;SDS011;25188;51.958;5.842;2023-01-30T18:08:05;26.00;;;4.37;;
39020;SDS011;25188;51.958;5.842;2023-01-30T18:10:31;18.77;;;4.13;;
39020;SDS011;25188;51.958;5.842;2023-01-30T18:12:57;25.37;;;4.27;;
39020;SDS011;25188;51.958;5.842;2023-01-30T18:15:23;33.23;;;5.30;;
39020;SDS011;25188;51.958;5.842;2023-01-30T18:17:48;31.00;;;4.87;;
39020;SDS011;25188;51.958;5.842;2023-01-30T18:20:16;18.77;;;2.90;;
39020;SDS011;25188;51.958;5.842;2023-01-30T18:22:43;22.90;;;3.50;;
39020;SDS011;25188;51.958;5.842;2023-01-30T18:25:09;20.70;;;3.53;;